AFL4320 UGTB-LTAC
Flight info
| Callsign | AFL4320 |
|---|---|
| Flight time | 1h 31m |
| Altitude | 36000 |
| Route | ZAGOT DCT NOLGA UG261 TBN UW71 ILHAN |
| Aircraft | MD11/H-SDE1E2E3FGHIJ2J3J4J5M1RWXY/LB1D1 |
Departure
| Time | 2026-05-05 14:10 |
|---|---|
| Airport | Tbilisi International Airport (UGTB) |
Arrival
| Time | 2026-05-05 15:42 |
|---|---|
| Airport | Esenboğa International Airport (LTAC) |
| Time | Latitude | Longitude | Altitude | Speed | Heading |
|---|---|---|---|---|---|
| 2026-05-05 13:43 | 41.67085 | 44.96047 | 1534 ft | 0 kts | 43° |
| 2026-05-05 13:56 | 41.67070 | 44.96030 | 1525 ft | 4 kts | 43° |
| 2026-05-05 13:56 | 41.67053 | 44.96008 | 1525 ft | 4 kts | 47° |
| 2026-05-05 13:57 | 41.67040 | 44.95985 | 1525 ft | 4 kts | 88° |
| 2026-05-05 13:57 | 41.67045 | 44.95961 | 1525 ft | 4 kts | 132° |
| 2026-05-05 13:57 | 41.67060 | 44.95940 | 1525 ft | 0 kts | 133° |
| 2026-05-05 14:01 | 41.67055 | 44.95947 | 1526 ft | 3 kts | 133° |
| 2026-05-05 14:01 | 41.67033 | 44.95979 | 1525 ft | 6 kts | 134° |
| 2026-05-05 14:02 | 41.66994 | 44.96035 | 1529 ft | 12 kts | 133° |
| 2026-05-05 14:02 | 41.66941 | 44.96111 | 1526 ft | 10 kts | 133° |
| 2026-05-05 14:02 | 41.66902 | 44.96174 | 1530 ft | 8 kts | 130° |
| 2026-05-05 14:02 | 41.66854 | 44.96245 | 1526 ft | 12 kts | 133° |
| 2026-05-05 14:03 | 41.66798 | 44.96324 | 1527 ft | 11 kts | 133° |
| 2026-05-05 14:03 | 41.66763 | 44.96373 | 1529 ft | 8 kts | 134° |
| 2026-05-05 14:03 | 41.66714 | 44.96418 | 1532 ft | 8 kts | 156° |
| 2026-05-05 14:03 | 41.66670 | 44.96420 | 1528 ft | 5 kts | 187° |
| 2026-05-05 14:04 | 41.66624 | 44.96408 | 1528 ft | 9 kts | 191° |
| 2026-05-05 14:04 | 41.66553 | 44.96388 | 1531 ft | 11 kts | 193° |
| 2026-05-05 14:04 | 41.66485 | 44.96367 | 1527 ft | 9 kts | 193° |
| 2026-05-05 14:04 | 41.66426 | 44.96347 | 1528 ft | 10 kts | 193° |
| 2026-05-05 14:05 | 41.66348 | 44.96322 | 1529 ft | 12 kts | 194° |
| 2026-05-05 14:05 | 41.66275 | 44.96303 | 1530 ft | 10 kts | 185° |
| 2026-05-05 14:05 | 41.66217 | 44.96308 | 1532 ft | 7 kts | 170° |
| 2026-05-05 14:05 | 41.66175 | 44.96321 | 1528 ft | 5 kts | 161° |
| 2026-05-05 14:06 | 41.66135 | 44.96350 | 1525 ft | 8 kts | 144° |
| 2026-05-05 14:06 | 41.66082 | 44.96414 | 1525 ft | 11 kts | 136° |
| 2026-05-05 14:06 | 41.66033 | 44.96478 | 1526 ft | 9 kts | 136° |
| 2026-05-05 14:06 | 41.65993 | 44.96529 | 1526 ft | 7 kts | 137° |
| 2026-05-05 14:07 | 41.65962 | 44.96567 | 1526 ft | 5 kts | 139° |
| 2026-05-05 14:07 | 41.65936 | 44.96589 | 1530 ft | 4 kts | 153° |
| 2026-05-05 14:07 | 41.65906 | 44.96596 | 1529 ft | 2 kts | 179° |
| 2026-05-05 14:07 | 41.65884 | 44.96591 | 1530 ft | 3 kts | 194° |
| 2026-05-05 14:08 | 41.65881 | 44.96590 | 1530 ft | 0 kts | 199° |
| 2026-05-05 14:08 | 41.65878 | 44.96587 | 1530 ft | 3 kts | 202° |
| 2026-05-05 14:08 | 41.65852 | 44.96551 | 1525 ft | 8 kts | 243° |
| 2026-05-05 14:09 | 41.65848 | 44.96481 | 1526 ft | 7 kts | 276° |
| 2026-05-05 14:09 | 41.65868 | 44.96431 | 1525 ft | 7 kts | 311° |
| 2026-05-05 14:09 | 41.65872 | 44.96425 | 1525 ft | 0 kts | 313° |
| 2026-05-05 14:10 | 41.66002 | 44.96257 | 1525 ft | 71 kts | 317° |
| 2026-05-05 14:10 | 41.66604 | 44.95504 | 1525 ft | 162 kts | 318° |
| 2026-05-05 14:10 | 41.67498 | 44.94335 | 2144 ft | 184 kts | 317° |
| 2026-05-05 14:10 | 41.68395 | 44.93176 | 3345 ft | 181 kts | 318° |
| 2026-05-05 14:11 | 41.69369 | 44.92022 | 4258 ft | 199 kts | 319° |
| 2026-05-05 14:11 | 41.70527 | 44.90653 | 4671 ft | 236 kts | 319° |
| 2026-05-05 14:11 | 41.71829 | 44.89106 | 5065 ft | 272 kts | 319° |
| 2026-05-05 14:11 | 41.73241 | 44.87406 | 6041 ft | 275 kts | 315° |
| 2026-05-05 14:12 | 41.74326 | 44.85296 | 7022 ft | 278 kts | 291° |
| 2026-05-05 14:12 | 41.74777 | 44.82767 | 7931 ft | 280 kts | 276° |
| 2026-05-05 14:12 | 41.74944 | 44.80164 | 8961 ft | 281 kts | 271° |
| 2026-05-05 14:12 | 41.75060 | 44.77547 | 9977 ft | 282 kts | 272° |
| 2026-05-05 14:13 | 41.75137 | 44.75788 | 10277 ft | 298 kts | 272° |
| 2026-05-05 14:13 | 41.75272 | 44.72867 | 10419 ft | 330 kts | 272° |
| 2026-05-05 14:13 | 41.75487 | 44.68597 | 10966 ft | 356 kts | 273° |
| 2026-05-05 14:13 | 41.75609 | 44.66343 | 11585 ft | 358 kts | 273° |
| 2026-05-05 14:14 | 41.75800 | 44.63028 | 12425 ft | 363 kts | 274° |
| 2026-05-05 14:14 | 41.76009 | 44.59652 | 13359 ft | 365 kts | 274° |
| 2026-05-05 14:14 | 41.76219 | 44.56250 | 14144 ft | 369 kts | 273° |
| 2026-05-05 14:14 | 41.76426 | 44.52800 | 14865 ft | 372 kts | 273° |
| 2026-05-05 14:15 | 41.76697 | 44.48129 | 15771 ft | 378 kts | 273° |
| 2026-05-05 14:15 | 41.76830 | 44.45792 | 16236 ft | 380 kts | 273° |
| 2026-05-05 14:15 | 41.77029 | 44.42244 | 16936 ft | 384 kts | 273° |
| 2026-05-05 14:15 | 41.77230 | 44.38643 | 17624 ft | 389 kts | 273° |
| 2026-05-05 14:16 | 41.77430 | 44.35006 | 18246 ft | 394 kts | 272° |
| 2026-05-05 14:16 | 41.77629 | 44.31366 | 18817 ft | 398 kts | 272° |
| 2026-05-05 14:16 | 41.77830 | 44.27667 | 19380 ft | 401 kts | 272° |
| 2026-05-05 14:16 | 41.78035 | 44.23923 | 19938 ft | 404 kts | 273° |
| 2026-05-05 14:17 | 41.78243 | 44.20105 | 20432 ft | 407 kts | 273° |
| 2026-05-05 14:17 | 41.78413 | 44.16355 | 20935 ft | 409 kts | 269° |
| 2026-05-05 14:17 | 41.78124 | 44.12583 | 21499 ft | 408 kts | 256° |
| 2026-05-05 14:17 | 41.77290 | 44.08929 | 22043 ft | 410 kts | 249° |
| 2026-05-05 14:18 | 41.76226 | 44.05374 | 22615 ft | 413 kts | 246° |
| 2026-05-05 14:18 | 41.75084 | 44.01822 | 23150 ft | 417 kts | 246° |
| 2026-05-05 14:18 | 41.73932 | 43.98241 | 23724 ft | 420 kts | 246° |
| 2026-05-05 14:18 | 41.72787 | 43.94615 | 24214 ft | 424 kts | 246° |
| 2026-05-05 14:19 | 41.71651 | 43.90951 | 24726 ft | 427 kts | 247° |
| 2026-05-05 14:19 | 41.70520 | 43.87250 | 25228 ft | 431 kts | 247° |
| 2026-05-05 14:19 | 41.69387 | 43.83518 | 25753 ft | 435 kts | 247° |
| 2026-05-05 14:19 | 41.68261 | 43.79801 | 26227 ft | 438 kts | 247° |
| 2026-05-05 14:20 | 41.67112 | 43.76005 | 26737 ft | 442 kts | 247° |
| 2026-05-05 14:20 | 41.65953 | 43.72180 | 27224 ft | 445 kts | 247° |
| 2026-05-05 14:20 | 41.64784 | 43.68329 | 27728 ft | 449 kts | 247° |
| 2026-05-05 14:20 | 41.63600 | 43.64434 | 28168 ft | 454 kts | 247° |
| 2026-05-05 14:21 | 41.62405 | 43.60510 | 28640 ft | 457 kts | 247° |
| 2026-05-05 14:21 | 41.61202 | 43.56569 | 29128 ft | 460 kts | 248° |
| 2026-05-05 14:21 | 41.59986 | 43.52591 | 29556 ft | 463 kts | 247° |
| 2026-05-05 14:21 | 41.58784 | 43.48658 | 29969 ft | 466 kts | 247° |
| 2026-05-05 14:22 | 41.57549 | 43.44627 | 30340 ft | 468 kts | 247° |
| 2026-05-05 14:22 | 41.56316 | 43.40614 | 30828 ft | 468 kts | 247° |
| 2026-05-05 14:22 | 41.55081 | 43.36601 | 31356 ft | 466 kts | 247° |
| 2026-05-05 14:22 | 41.53852 | 43.32615 | 31943 ft | 462 kts | 247° |
| 2026-05-05 14:23 | 41.52629 | 43.28655 | 32446 ft | 460 kts | 247° |
| 2026-05-05 14:23 | 41.51412 | 43.24718 | 32931 ft | 459 kts | 246° |
| 2026-05-05 14:23 | 41.50193 | 43.20783 | 33387 ft | 457 kts | 246° |
| 2026-05-05 14:23 | 41.48978 | 43.16866 | 33822 ft | 456 kts | 246° |
| 2026-05-05 14:24 | 41.47766 | 43.12966 | 34185 ft | 455 kts | 246° |
| 2026-05-05 14:24 | 41.46566 | 43.09124 | 34527 ft | 454 kts | 246° |
| 2026-05-05 14:24 | 41.45344 | 43.05256 | 34808 ft | 454 kts | 245° |
| 2026-05-05 14:24 | 41.44112 | 43.01363 | 35103 ft | 454 kts | 245° |
| 2026-05-05 14:25 | 41.42949 | 42.97456 | 35390 ft | 455 kts | 250° |
| 2026-05-05 14:25 | 41.42140 | 42.93389 | 35687 ft | 457 kts | 256° |
| 2026-05-05 14:25 | 41.41567 | 42.89205 | 35858 ft | 459 kts | 259° |
| 2026-05-05 14:25 | 41.41096 | 42.84996 | 35889 ft | 458 kts | 259° |
| 2026-05-05 14:26 | 41.40191 | 42.76603 | 35915 ft | 458 kts | 259° |
| 2026-05-05 14:26 | 41.39217 | 42.68216 | 35915 ft | 457 kts | 259° |
| 2026-05-05 14:27 | 41.38206 | 42.59915 | 35918 ft | 457 kts | 258° |
| 2026-05-05 14:27 | 41.37172 | 42.51550 | 35928 ft | 457 kts | 258° |
| 2026-05-05 14:28 | 41.36137 | 42.43229 | 35934 ft | 457 kts | 258° |
| 2026-05-05 14:28 | 41.35092 | 42.34870 | 35929 ft | 458 kts | 258° |
| 2026-05-05 14:29 | 41.34043 | 42.26514 | 35950 ft | 458 kts | 258° |
| 2026-05-05 14:29 | 41.32986 | 42.18154 | 35947 ft | 458 kts | 258° |
| 2026-05-05 14:30 | 41.31928 | 42.09841 | 35965 ft | 458 kts | 258° |
| 2026-05-05 14:30 | 41.30857 | 42.01471 | 35974 ft | 458 kts | 258° |
| 2026-05-05 14:31 | 41.29766 | 41.93130 | 35976 ft | 458 kts | 258° |
| 2026-05-05 14:31 | 41.28650 | 41.84805 | 35990 ft | 459 kts | 258° |
| 2026-05-05 14:32 | 41.27536 | 41.76416 | 35982 ft | 459 kts | 258° |
| 2026-05-05 14:32 | 41.26439 | 41.68120 | 35983 ft | 460 kts | 258° |
| 2026-05-05 14:33 | 41.25328 | 41.59752 | 35993 ft | 460 kts | 258° |
| 2026-05-05 14:33 | 41.24211 | 41.51389 | 35987 ft | 460 kts | 258° |
| 2026-05-05 14:34 | 41.23084 | 41.43006 | 35982 ft | 461 kts | 258° |
| 2026-05-05 14:34 | 41.21964 | 41.34719 | 35992 ft | 461 kts | 258° |
| 2026-05-05 14:35 | 41.20826 | 41.26347 | 36014 ft | 461 kts | 258° |
| 2026-05-05 14:35 | 41.19676 | 41.17934 | 36000 ft | 463 kts | 258° |
| 2026-05-05 14:36 | 41.18517 | 41.09513 | 36016 ft | 464 kts | 258° |
| 2026-05-05 14:36 | 41.17354 | 41.01098 | 36021 ft | 463 kts | 257° |
| 2026-05-05 14:37 | 41.16192 | 40.92744 | 36017 ft | 463 kts | 257° |
| 2026-05-05 14:37 | 41.15005 | 40.84374 | 36018 ft | 462 kts | 257° |
| 2026-05-05 14:38 | 41.13794 | 40.75988 | 36028 ft | 463 kts | 257° |
| 2026-05-05 14:38 | 41.12593 | 40.67585 | 36029 ft | 464 kts | 257° |
| 2026-05-05 14:39 | 41.11395 | 40.59164 | 36020 ft | 465 kts | 257° |
| 2026-05-05 14:39 | 41.10188 | 40.50716 | 36016 ft | 465 kts | 257° |
| 2026-05-05 14:40 | 41.08984 | 40.42332 | 36019 ft | 465 kts | 257° |
| 2026-05-05 14:40 | 41.07767 | 40.33911 | 36017 ft | 465 kts | 257° |
| 2026-05-05 14:41 | 41.06543 | 40.25488 | 36019 ft | 465 kts | 257° |
| 2026-05-05 14:41 | 41.05312 | 40.17062 | 36021 ft | 465 kts | 257° |
| 2026-05-05 14:42 | 41.04075 | 40.08647 | 36027 ft | 466 kts | 257° |
| 2026-05-05 14:42 | 41.02829 | 40.00208 | 36023 ft | 466 kts | 257° |
| 2026-05-05 14:43 | 41.01584 | 39.91824 | 36025 ft | 467 kts | 257° |
| 2026-05-05 14:43 | 41.00335 | 39.83449 | 36025 ft | 467 kts | 257° |
| 2026-05-05 14:44 | 40.99831 | 39.74857 | 36019 ft | 471 kts | 272° |
| 2026-05-05 14:44 | 41.00658 | 39.66209 | 36019 ft | 474 kts | 277° |
| 2026-05-05 14:45 | 41.01646 | 39.57580 | 36024 ft | 475 kts | 276° |
| 2026-05-05 14:45 | 41.02531 | 39.48922 | 36024 ft | 474 kts | 275° |
| 2026-05-05 14:46 | 41.03353 | 39.40257 | 36011 ft | 473 kts | 275° |
| 2026-05-05 14:46 | 41.04155 | 39.31609 | 36029 ft | 473 kts | 275° |
| 2026-05-05 14:47 | 41.04948 | 39.23006 | 36024 ft | 473 kts | 275° |
| 2026-05-05 14:47 | 41.05743 | 39.14334 | 36016 ft | 473 kts | 275° |
| 2026-05-05 14:48 | 41.06526 | 39.05677 | 36013 ft | 473 kts | 275° |
| 2026-05-05 14:48 | 41.07319 | 38.97009 | 36015 ft | 473 kts | 275° |
| 2026-05-05 14:49 | 41.08113 | 38.88349 | 36032 ft | 473 kts | 275° |
| 2026-05-05 14:49 | 41.08904 | 38.79678 | 36021 ft | 473 kts | 275° |
| 2026-05-05 14:50 | 41.09678 | 38.71085 | 36021 ft | 473 kts | 275° |
| 2026-05-05 14:50 | 41.10426 | 38.62426 | 36021 ft | 473 kts | 275° |
| 2026-05-05 14:51 | 41.11156 | 38.53755 | 36021 ft | 473 kts | 275° |
| 2026-05-05 14:51 | 41.11881 | 38.45084 | 36022 ft | 474 kts | 275° |
| 2026-05-05 14:52 | 41.12607 | 38.36384 | 36020 ft | 474 kts | 275° |
| 2026-05-05 14:52 | 41.13326 | 38.27682 | 36019 ft | 474 kts | 275° |
| 2026-05-05 14:53 | 41.14031 | 38.19022 | 36021 ft | 474 kts | 275° |
| 2026-05-05 14:53 | 41.14740 | 38.10308 | 36024 ft | 475 kts | 275° |
| 2026-05-05 14:54 | 41.15447 | 38.01592 | 36022 ft | 476 kts | 275° |
| 2026-05-05 14:54 | 41.16149 | 37.92870 | 36023 ft | 476 kts | 275° |
| 2026-05-05 14:55 | 41.16848 | 37.84182 | 36024 ft | 476 kts | 275° |
| 2026-05-05 14:55 | 41.17568 | 37.75450 | 36026 ft | 476 kts | 275° |
| 2026-05-05 14:56 | 41.18304 | 37.66701 | 36024 ft | 477 kts | 275° |
| 2026-05-05 14:56 | 41.18933 | 37.57929 | 36023 ft | 476 kts | 273° |
| 2026-05-05 14:57 | 41.19492 | 37.49158 | 36020 ft | 476 kts | 274° |
| 2026-05-05 14:57 | 41.20134 | 37.40411 | 36021 ft | 476 kts | 275° |
| 2026-05-05 14:58 | 41.20781 | 37.31782 | 36022 ft | 477 kts | 275° |
| 2026-05-05 14:58 | 41.21429 | 37.23063 | 36021 ft | 477 kts | 275° |
| 2026-05-05 14:59 | 41.22093 | 37.14329 | 36020 ft | 478 kts | 275° |
| 2026-05-05 14:59 | 41.22772 | 37.05554 | 36022 ft | 478 kts | 275° |
| 2026-05-05 15:00 | 41.23335 | 36.98259 | 36022 ft | 478 kts | 275° |
| 2026-05-05 15:00 | 41.24118 | 36.88000 | 36021 ft | 477 kts | 275° |
| 2026-05-05 15:01 | 41.24560 | 36.82144 | 36018 ft | 477 kts | 275° |
| 2026-05-05 15:01 | 41.24946 | 36.76972 | 36040 ft | 477 kts | 276° |
| 2026-05-05 15:02 | 41.25464 | 36.69745 | 36043 ft | 477 kts | 276° |
| 2026-05-05 15:02 | 41.26116 | 36.61024 | 36050 ft | 476 kts | 275° |
| 2026-05-05 15:03 | 41.26000 | 36.52218 | 36009 ft | 475 kts | 258° |
| 2026-05-05 15:03 | 41.23935 | 36.43948 | 36014 ft | 475 kts | 248° |
| 2026-05-05 15:04 | 41.21408 | 36.35842 | 36006 ft | 475 kts | 248° |
| 2026-05-05 15:04 | 41.19008 | 36.27658 | 36002 ft | 475 kts | 250° |
| 2026-05-05 15:05 | 41.15559 | 36.15290 | 35996 ft | 475 kts | 250° |
| 2026-05-05 15:06 | 41.13300 | 36.07166 | 35981 ft | 475 kts | 250° |
| 2026-05-05 15:06 | 41.10995 | 35.98929 | 35982 ft | 476 kts | 251° |
| 2026-05-05 15:07 | 41.08654 | 35.90673 | 35977 ft | 477 kts | 251° |
| 2026-05-05 15:07 | 41.06253 | 35.82504 | 35961 ft | 477 kts | 249° |
| 2026-05-05 15:08 | 41.03838 | 35.74316 | 35966 ft | 477 kts | 250° |
| 2026-05-05 15:08 | 41.01444 | 35.66130 | 35955 ft | 477 kts | 251° |
| 2026-05-05 15:09 | 40.99086 | 35.57910 | 35962 ft | 476 kts | 251° |
| 2026-05-05 15:09 | 40.96746 | 35.49711 | 35965 ft | 476 kts | 251° |
| 2026-05-05 15:10 | 40.94667 | 35.42462 | 35954 ft | 476 kts | 250° |
| 2026-05-05 15:10 | 40.93371 | 35.37904 | 35955 ft | 477 kts | 251° |
| 2026-05-05 15:11 | 40.92212 | 35.33916 | 35967 ft | 476 kts | 250° |
| 2026-05-05 15:11 | 40.91464 | 35.31397 | 35932 ft | 477 kts | 251° |
| 2026-05-05 15:12 | 40.90712 | 35.28963 | 35832 ft | 477 kts | 252° |
| 2026-05-05 15:12 | 40.90143 | 35.27010 | 35776 ft | 474 kts | 241° |
| 2026-05-05 15:12 | 40.88989 | 35.22944 | 35916 ft | 469 kts | 252° |
| 2026-05-05 15:13 | 40.86675 | 35.14815 | 35953 ft | 477 kts | 251° |
| 2026-05-05 15:13 | 40.84307 | 35.06671 | 35936 ft | 478 kts | 251° |
| 2026-05-05 15:14 | 40.81919 | 34.98492 | 35943 ft | 477 kts | 251° |
| 2026-05-05 15:14 | 40.79526 | 34.90321 | 35941 ft | 477 kts | 251° |
| 2026-05-05 15:15 | 40.77127 | 34.82148 | 35938 ft | 477 kts | 251° |
| 2026-05-05 15:15 | 40.74719 | 34.73988 | 35937 ft | 478 kts | 251° |
| 2026-05-05 15:16 | 40.72268 | 34.65856 | 35942 ft | 478 kts | 250° |
| 2026-05-05 15:16 | 40.69819 | 34.57751 | 35941 ft | 477 kts | 250° |
| 2026-05-05 15:17 | 40.67365 | 34.49617 | 35941 ft | 477 kts | 250° |
| 2026-05-05 15:17 | 40.64906 | 34.41478 | 35946 ft | 478 kts | 251° |
| 2026-05-05 15:18 | 40.62455 | 34.33386 | 35945 ft | 477 kts | 251° |
| 2026-05-05 15:18 | 40.59988 | 34.25272 | 35946 ft | 477 kts | 251° |
| 2026-05-05 15:19 | 40.57516 | 34.17164 | 35950 ft | 478 kts | 251° |
| 2026-05-05 15:19 | 40.55033 | 34.09047 | 35948 ft | 477 kts | 251° |
| 2026-05-05 15:20 | 40.52548 | 34.00948 | 35943 ft | 477 kts | 251° |
| 2026-05-05 15:20 | 40.50080 | 33.92852 | 35943 ft | 477 kts | 252° |
| 2026-05-05 15:21 | 40.47909 | 33.84638 | 35947 ft | 475 kts | 255° |
| 2026-05-05 15:21 | 40.45876 | 33.76394 | 35945 ft | 474 kts | 254° |
| 2026-05-05 15:22 | 40.42793 | 33.68719 | 35888 ft | 475 kts | 235° |
| 2026-05-05 15:22 | 40.40541 | 33.65636 | 35626 ft | 463 kts | 224° |
| 2026-05-05 15:22 | 40.38038 | 33.63063 | 34850 ft | 464 kts | 219° |
| 2026-05-05 15:22 | 40.35381 | 33.60645 | 33930 ft | 466 kts | 219° |
| 2026-05-05 15:23 | 40.32706 | 33.58234 | 32797 ft | 468 kts | 219° |
| 2026-05-05 15:23 | 40.30040 | 33.55753 | 31582 ft | 472 kts | 220° |
| 2026-05-05 15:23 | 40.27381 | 33.53187 | 30412 ft | 477 kts | 221° |
| 2026-05-05 15:23 | 40.24718 | 33.50549 | 29055 ft | 481 kts | 221° |
| 2026-05-05 15:24 | 40.22059 | 33.47880 | 27842 ft | 482 kts | 221° |
| 2026-05-05 15:24 | 40.19407 | 33.45205 | 26641 ft | 481 kts | 221° |
| 2026-05-05 15:24 | 40.16780 | 33.42513 | 25682 ft | 475 kts | 223° |
| 2026-05-05 15:24 | 40.14263 | 33.39772 | 24844 ft | 467 kts | 224° |
| 2026-05-05 15:25 | 40.11830 | 33.37014 | 24013 ft | 459 kts | 225° |
| 2026-05-05 15:25 | 40.09452 | 33.34273 | 23121 ft | 452 kts | 225° |
| 2026-05-05 15:25 | 40.07112 | 33.31571 | 22222 ft | 444 kts | 225° |
| 2026-05-05 15:25 | 40.04813 | 33.28924 | 21313 ft | 437 kts | 225° |
| 2026-05-05 15:26 | 40.02513 | 33.26373 | 20457 ft | 431 kts | 222° |
| 2026-05-05 15:26 | 40.00188 | 33.24015 | 19655 ft | 425 kts | 220° |
| 2026-05-05 15:26 | 39.97834 | 33.21738 | 18895 ft | 418 kts | 219° |
| 2026-05-05 15:26 | 39.95504 | 33.19523 | 18189 ft | 410 kts | 218° |
| 2026-05-05 15:27 | 39.93211 | 33.17349 | 17323 ft | 404 kts | 218° |
| 2026-05-05 15:27 | 39.90957 | 33.15208 | 16474 ft | 399 kts | 218° |
| 2026-05-05 15:27 | 39.88724 | 33.13080 | 15646 ft | 394 kts | 218° |
| 2026-05-05 15:27 | 39.86533 | 33.10990 | 15105 ft | 387 kts | 218° |
| 2026-05-05 15:28 | 39.84363 | 33.08922 | 14742 ft | 389 kts | 218° |
| 2026-05-05 15:28 | 39.82209 | 33.06875 | 14379 ft | 387 kts | 218° |
| 2026-05-05 15:28 | 39.80040 | 33.04816 | 14079 ft | 384 kts | 217° |
| 2026-05-05 15:28 | 39.77884 | 33.02771 | 13999 ft | 381 kts | 217° |
| 2026-05-05 15:29 | 39.75807 | 33.00804 | 13976 ft | 357 kts | 217° |
| 2026-05-05 15:29 | 39.73853 | 32.98957 | 13970 ft | 336 kts | 218° |
| 2026-05-05 15:29 | 39.72017 | 32.97219 | 13966 ft | 317 kts | 218° |
| 2026-05-05 15:29 | 39.70284 | 32.95578 | 13968 ft | 298 kts | 218° |
| 2026-05-05 15:30 | 39.68636 | 32.94016 | 13982 ft | 290 kts | 218° |
| 2026-05-05 15:30 | 39.67015 | 32.92479 | 13977 ft | 283 kts | 218° |
| 2026-05-05 15:30 | 39.65451 | 32.90996 | 13977 ft | 277 kts | 219° |
| 2026-05-05 15:30 | 39.64007 | 32.89424 | 13648 ft | 274 kts | 229° |
| 2026-05-05 15:31 | 39.62953 | 32.87404 | 13194 ft | 269 kts | 250° |
| 2026-05-05 15:31 | 39.62542 | 32.85088 | 12797 ft | 262 kts | 272° |
| 2026-05-05 15:31 | 39.62808 | 32.82792 | 12376 ft | 257 kts | 292° |
| 2026-05-05 15:31 | 39.63644 | 32.80780 | 12008 ft | 252 kts | 308° |
| 2026-05-05 15:32 | 39.64872 | 32.79179 | 11594 ft | 250 kts | 327° |
| 2026-05-05 15:32 | 39.66440 | 32.78281 | 11229 ft | 248 kts | 348° |
| 2026-05-05 15:32 | 39.68148 | 32.78214 | 10596 ft | 247 kts | 10° |
| 2026-05-05 15:32 | 39.69743 | 32.79026 | 9711 ft | 248 kts | 31° |
| 2026-05-05 15:33 | 39.71147 | 32.80270 | 8878 ft | 241 kts | 35° |
| 2026-05-05 15:33 | 39.72526 | 32.81603 | 8494 ft | 248 kts | 34° |
| 2026-05-05 15:33 | 39.73913 | 32.82945 | 8122 ft | 248 kts | 34° |
| 2026-05-05 15:33 | 39.75295 | 32.84272 | 8002 ft | 247 kts | 34° |
| 2026-05-05 15:34 | 39.76679 | 32.85593 | 7991 ft | 247 kts | 34° |
| 2026-05-05 15:34 | 39.78065 | 32.86912 | 7979 ft | 247 kts | 35° |
| 2026-05-05 15:34 | 39.79446 | 32.88227 | 7992 ft | 247 kts | 34° |
| 2026-05-05 15:34 | 39.80810 | 32.89521 | 7986 ft | 239 kts | 33° |
| 2026-05-05 15:35 | 39.82101 | 32.90747 | 7969 ft | 226 kts | 34° |
| 2026-05-05 15:35 | 39.83355 | 32.91941 | 8006 ft | 223 kts | 33° |
| 2026-05-05 15:35 | 39.84608 | 32.93133 | 7977 ft | 222 kts | 33° |
| 2026-05-05 15:35 | 39.85859 | 32.94324 | 7981 ft | 222 kts | 33° |
| 2026-05-05 15:36 | 39.87107 | 32.95511 | 7974 ft | 223 kts | 34° |
| 2026-05-05 15:36 | 39.88362 | 32.96699 | 7976 ft | 222 kts | 31° |
| 2026-05-05 15:36 | 39.89721 | 32.97572 | 7793 ft | 209 kts | 14° |
| 2026-05-05 15:36 | 39.91148 | 32.97615 | 6627 ft | 207 kts | 342° |
| 2026-05-05 15:37 | 39.92371 | 32.96707 | 5728 ft | 199 kts | 319° |
| 2026-05-05 15:37 | 39.93432 | 32.95496 | 5378 ft | 205 kts | 318° |
| 2026-05-05 15:37 | 39.94495 | 32.94258 | 5110 ft | 205 kts | 318° |
| 2026-05-05 15:37 | 39.95540 | 32.93034 | 5091 ft | 206 kts | 318° |
| 2026-05-05 15:38 | 39.96620 | 32.91762 | 5084 ft | 206 kts | 317° |
| 2026-05-05 15:38 | 39.97644 | 32.90617 | 5048 ft | 180 kts | 324° |
| 2026-05-05 15:38 | 39.98702 | 32.89966 | 4990 ft | 165 kts | 346° |
| 2026-05-05 15:38 | 39.99837 | 32.89932 | 5070 ft | 165 kts | 9° |
| 2026-05-05 15:39 | 40.00891 | 32.90552 | 5012 ft | 171 kts | 32° |
| 2026-05-05 15:39 | 40.01860 | 32.91439 | 4648 ft | 172 kts | 31° |
| 2026-05-05 15:39 | 40.02853 | 32.92331 | 4320 ft | 173 kts | 31° |
| 2026-05-05 15:39 | 40.03863 | 32.93200 | 4226 ft | 174 kts | 31° |
| 2026-05-05 15:40 | 40.04881 | 32.94056 | 4226 ft | 175 kts | 30° |
| 2026-05-05 15:40 | 40.05880 | 32.94978 | 3981 ft | 176 kts | 36° |
| 2026-05-05 15:40 | 40.06852 | 32.95919 | 3923 ft | 174 kts | 36° |
| 2026-05-05 15:40 | 40.07813 | 32.96877 | 3682 ft | 172 kts | 35° |
| 2026-05-05 15:41 | 40.08784 | 32.97816 | 3442 ft | 175 kts | 34° |
| 2026-05-05 15:41 | 40.09755 | 32.98714 | 3257 ft | 174 kts | 32° |
| 2026-05-05 15:41 | 40.10724 | 32.99618 | 3139 ft | 158 kts | 37° |
| 2026-05-05 15:41 | 40.11387 | 33.00263 | 3138 ft | 83 kts | 40° |
| 2026-05-05 15:42 | 40.11767 | 33.00610 | 3143 ft | 56 kts | 22° |
| 2026-05-05 15:42 | 40.12042 | 33.00669 | 3148 ft | 19 kts | 5° |
| 2026-05-05 15:42 | 40.12063 | 33.00671 | 3148 ft | 0 kts | 5° |
| 2026-05-05 15:43 | 40.12071 | 33.00673 | 3148 ft | 4 kts | 6° |
| 2026-05-05 15:44 | 40.12116 | 33.00681 | 3147 ft | 10 kts | 9° |
| 2026-05-05 15:44 | 40.12198 | 33.00728 | 3145 ft | 16 kts | 31° |
| 2026-05-05 15:44 | 40.12297 | 33.00825 | 3146 ft | 20 kts | 36° |
| 2026-05-05 15:44 | 40.12424 | 33.00947 | 3144 ft | 25 kts | 36° |
| 2026-05-05 15:45 | 40.12570 | 33.01084 | 3147 ft | 28 kts | 36° |
| 2026-05-05 15:45 | 40.12713 | 33.01220 | 3150 ft | 21 kts | 36° |
| 2026-05-05 15:45 | 40.12820 | 33.01322 | 3151 ft | 14 kts | 35° |
| 2026-05-05 15:45 | 40.12852 | 33.01331 | 3150 ft | 5 kts | 356° |
| 2026-05-05 15:46 | 40.12888 | 33.01304 | 3150 ft | 7 kts | 321° |
| 2026-05-05 15:46 | 40.12926 | 33.01244 | 3149 ft | 10 kts | 306° |
| 2026-05-05 15:46 | 40.12973 | 33.01161 | 3150 ft | 13 kts | 306° |
| 2026-05-05 15:46 | 40.13032 | 33.01055 | 3150 ft | 16 kts | 306° |
| 2026-05-05 15:47 | 40.13080 | 33.00968 | 3150 ft | 20 kts | 306° |
| 2026-05-05 15:47 | 40.13169 | 33.00810 | 3145 ft | 23 kts | 306° |
| 2026-05-05 15:47 | 40.13241 | 33.00679 | 3141 ft | 13 kts | 307° |
| 2026-05-05 15:47 | 40.13299 | 33.00591 | 3139 ft | 8 kts | 325° |
| 2026-05-05 15:48 | 40.13328 | 33.00590 | 3140 ft | 4 kts | 12° |
| 2026-05-05 15:48 | 40.13366 | 33.00622 | 3139 ft | 9 kts | 36° |
| 2026-05-05 15:48 | 40.13405 | 33.00660 | 3139 ft | 12 kts | 36° |
| 2026-05-05 15:48 | 40.13482 | 33.00734 | 3140 ft | 15 kts | 36° |
| 2026-05-05 15:49 | 40.13581 | 33.00829 | 3139 ft | 14 kts | 36° |
| 2026-05-05 15:49 | 40.13621 | 33.00878 | 3137 ft | 4 kts | 66° |
| 2026-05-05 15:49 | 40.13617 | 33.00917 | 3137 ft | 6 kts | 108° |
| 2026-05-05 15:49 | 40.13596 | 33.00965 | 3137 ft | 0 kts | 123° |
| 2026-05-05 15:50 | 40.13592 | 33.00973 | 3138 ft | 0 kts | 124° |